createdAt,value
2023-02-02T00:00:39.420Z,0.22
2023-02-02T00:05:53.186Z,0.05
2023-02-02T00:10:56.039Z,-0.01
2023-02-02T00:15:58.892Z,-0.19
2023-02-02T00:21:01.684Z,-0.28
2023-02-02T00:26:04.851Z,-0.15
2023-02-02T00:31:07.758Z,0.10
2023-02-02T00:36:10.411Z,0.20
2023-02-02T00:41:13.477Z,0.21
2023-02-02T00:46:19.203Z,0.25
2023-02-02T00:51:22.357Z,0.29
2023-02-02T00:56:26.235Z,0.44
2023-02-02T01:01:29.607Z,0.46
2023-02-02T01:06:32.269Z,0.36
2023-02-02T01:11:34.914Z,0.38
2023-02-02T01:16:37.740Z,0.34
2023-02-02T01:21:40.402Z,0.12
2023-02-02T01:26:43.286Z,0.02
2023-02-02T01:31:46.193Z,0.25
2023-02-02T01:36:49.188Z,0.40
2023-02-02T01:41:52.129Z,0.25
2023-02-02T01:46:54.951Z,0.28
2023-02-02T01:52:01.100Z,0.27
2023-02-02T01:57:12.958Z,0.33
2023-02-02T02:02:16.834Z,0.42
2023-02-02T02:07:20.140Z,0.28
2023-02-02T02:12:22.863Z,0.41
2023-02-02T02:17:49.747Z,0.61
2023-02-02T02:23:42.963Z,0.85
2023-02-02T02:29:21.354Z,0.86
2023-02-02T02:34:53.250Z,0.57
2023-02-02T02:40:09.617Z,0.34
2023-02-02T02:45:14.053Z,0.58
2023-02-02T02:50:17.167Z,0.68
2023-02-02T02:55:20.173Z,0.98
2023-02-02T03:00:40.489Z,0.81
2023-02-02T03:06:04.916Z,0.76
2023-02-02T03:11:11.477Z,0.79
2023-02-02T03:16:16.647Z,0.82
2023-02-02T03:21:19.651Z,1.03
2023-02-02T03:26:22.461Z,1.13
2023-02-02T03:31:29.018Z,1.07
2023-02-02T03:36:31.717Z,1.27
2023-02-02T03:41:34.408Z,1.00
2023-02-02T03:46:37.384Z,1.24
2023-02-02T03:51:40.280Z,1.17
2023-02-02T03:56:43.182Z,1.16
2023-02-02T04:01:45.904Z,1.25
2023-02-02T04:06:48.714Z,1.25
2023-02-02T04:11:51.414Z,1.23
2023-02-02T04:16:54.067Z,1.23
2023-02-02T04:21:56.788Z,1.31
2023-02-02T04:26:59.535Z,1.35
2023-02-02T04:32:02.299Z,1.21
2023-02-02T04:37:05.034Z,1.24
2023-02-02T04:42:07.604Z,1.16
2023-02-02T04:47:10.228Z,1.25
2023-02-02T04:52:13.450Z,1.30
2023-02-02T04:57:16.117Z,1.37
2023-02-02T05:02:19.925Z,1.28
2023-02-02T05:07:22.548Z,1.21
2023-02-02T05:12:25.357Z,1.15
2023-02-02T05:17:28.477Z,1.11
2023-02-02T05:22:31.163Z,1.22
2023-02-02T05:27:33.927Z,1.25
2023-02-02T05:32:36.676Z,1.29
2023-02-02T05:37:39.376Z,1.31
2023-02-02T05:42:42.165Z,1.40
2023-02-02T05:47:44.831Z,1.41
2023-02-02T05:52:49.043Z,1.49
2023-02-02T05:57:51.740Z,1.84
2023-02-02T06:02:54.652Z,1.79
2023-02-02T06:08:02.537Z,1.99
2023-02-02T06:13:05.194Z,2.04
2023-02-02T06:18:08.654Z,1.99
2023-02-02T06:23:11.282Z,1.90
2023-02-02T06:28:13.851Z,2.04
2023-02-02T06:33:16.982Z,2.22
2023-02-02T06:38:19.907Z,2.46
2023-02-02T06:43:22.612Z,2.39
2023-02-02T06:48:25.638Z,2.32
2023-02-02T06:53:28.334Z,2.29
2023-02-02T06:58:32.379Z,2.15
2023-02-02T07:03:35.910Z,2.39
2023-02-02T07:08:38.779Z,2.36
2023-02-02T07:13:41.678Z,2.26
2023-02-02T07:18:45.093Z,2.32
2023-02-02T07:23:48.859Z,2.69
2023-02-02T07:28:52.471Z,2.66
2023-02-02T07:33:55.535Z,2.76
2023-02-02T07:38:58.317Z,3.09
2023-02-02T07:44:01.391Z,3.13
2023-02-02T07:49:04.307Z,3.16
2023-02-02T07:54:07.462Z,3.22
2023-02-02T07:59:11.381Z,3.48
2023-02-02T08:04:14.112Z,3.42
2023-02-02T08:09:17.167Z,3.52
2023-02-02T08:14:20.065Z,3.90
2023-02-02T08:19:22.962Z,4.26
2023-02-02T08:24:26.289Z,4.25
2023-02-02T08:29:29.250Z,4.18
2023-02-02T08:34:35.022Z,4.31
2023-02-02T08:39:37.852Z,3.99
2023-02-02T08:45:01.322Z,4.59
2023-02-02T08:50:03.265Z,5.37
2023-02-02T08:55:07.438Z,5.50
2023-02-02T09:00:12.010Z,6.57
2023-02-02T09:05:15.766Z,7.72
2023-02-02T09:10:18.632Z,7.85
2023-02-02T09:15:21.536Z,8.36
2023-02-02T09:20:24.489Z,8.82
2023-02-02T09:25:28.624Z,9.07
2023-02-02T09:30:32.505Z,9.40
2023-02-02T09:35:35.404Z,9.30
2023-02-02T09:40:38.383Z,9.27
2023-02-02T09:46:03.333Z,8.82
2023-02-02T09:51:18.732Z,8.34
2023-02-02T09:56:33.473Z,8.54
2023-02-02T10:01:43.018Z,8.16
2023-02-02T10:06:52.278Z,7.94
2023-02-02T10:12:17.512Z,7.61
2023-02-02T10:17:29.389Z,7.58
2023-02-02T10:22:34.728Z,7.08
2023-02-02T10:27:41.259Z,6.47
2023-02-02T10:32:55.875Z,6.80
2023-02-02T10:38:24.303Z,6.59
2023-02-02T10:44:04.392Z,6.25
2023-02-02T10:49:34.292Z,6.21
2023-02-02T10:54:58.419Z,6.19
2023-02-02T11:00:22.527Z,5.71
2023-02-02T11:05:47.662Z,5.59
2023-02-02T11:10:53.490Z,5.57
2023-02-02T11:16:17.607Z,5.55
2023-02-02T11:21:27.945Z,5.74
2023-02-02T11:26:48.428Z,6.01
2023-02-02T11:31:51.346Z,5.92
2023-02-02T11:37:03.523Z,5.44
2023-02-02T11:42:20.776Z,5.14
2023-02-02T11:47:34.164Z,5.17
2023-02-02T11:52:40.593Z,5.06
2023-02-02T11:58:12.182Z,4.93
2023-02-02T12:03:40.114Z,4.59
2023-02-02T12:08:42.855Z,4.66
2023-02-02T12:13:59.175Z,4.49
2023-02-02T12:19:20.791Z,4.62
2023-02-02T12:24:46.543Z,4.61
2023-02-02T12:30:15.402Z,4.60
2023-02-02T12:35:45.355Z,4.63
2023-02-02T12:41:10.211Z,4.54
2023-02-02T12:46:28.364Z,4.51
2023-02-02T12:51:56.014Z,4.38
2023-02-02T12:56:58.876Z,4.33
2023-02-02T13:02:29.622Z,4.30
2023-02-02T13:07:47.856Z,4.25
2023-02-02T13:13:12.771Z,4.13
2023-02-02T13:18:27.819Z,4.04
2023-02-02T13:24:00.240Z,3.86
2023-02-02T13:29:23.890Z,3.79
2023-02-02T13:34:39.903Z,3.70
2023-02-02T13:39:49.865Z,3.75
2023-02-02T13:44:59.107Z,3.73
2023-02-02T13:50:08.009Z,3.68
2023-02-02T13:55:51.719Z,3.56
2023-02-02T14:00:59.927Z,3.60
2023-02-02T14:06:17.581Z,3.38
2023-02-02T14:11:31.547Z,3.38
2023-02-02T14:16:34.239Z,3.33
2023-02-02T14:21:37.051Z,3.11
2023-02-02T14:26:43.652Z,2.96
2023-02-02T14:31:55.647Z,2.72
2023-02-02T14:37:20.741Z,2.57
2023-02-02T14:43:00.710Z,2.53
2023-02-02T14:48:22.001Z,2.55
2023-02-02T14:53:30.760Z,2.54
2023-02-02T14:58:52.852Z,2.45
2023-02-02T15:04:21.756Z,2.56
2023-02-02T15:09:28.682Z,2.56
2023-02-02T15:15:01.626Z,2.52
2023-02-02T15:20:15.014Z,2.66
2023-02-02T15:26:08.071Z,2.72
2023-02-02T15:31:27.529Z,2.72
2023-02-02T15:36:38.905Z,2.65
2023-02-02T15:41:47.014Z,2.48
2023-02-02T15:46:51.378Z,2.52
2023-02-02T15:51:57.279Z,2.57
2023-02-02T15:57:00.900Z,2.49
2023-02-02T16:02:12.337Z,2.48
2023-02-02T16:07:22.151Z,2.52
2023-02-02T16:12:24.984Z,2.38
2023-02-02T16:17:32.671Z,2.34
2023-02-02T16:22:38.338Z,2.43
2023-02-02T16:27:46.595Z,2.45
2023-02-02T16:32:50.090Z,2.55
2023-02-02T16:37:53.783Z,2.59
2023-02-02T16:43:07.901Z,2.57
2023-02-02T16:48:29.942Z,2.60
2023-02-02T16:53:32.746Z,2.66
2023-02-02T16:58:43.952Z,2.69
2023-02-02T17:03:55.526Z,2.66
2023-02-02T17:09:15.828Z,2.62
2023-02-02T17:14:30.339Z,2.57
2023-02-02T17:19:32.910Z,2.33
2023-02-02T17:24:35.705Z,2.43
2023-02-02T17:29:38.406Z,2.37
2023-02-02T17:34:41.456Z,2.34
2023-02-02T17:39:44.923Z,2.52
2023-02-02T17:44:47.714Z,2.52
2023-02-02T17:49:50.516Z,2.36
2023-02-02T17:54:53.258Z,2.36
2023-02-02T17:59:55.843Z,2.29
2023-02-02T18:04:58.808Z,2.15
2023-02-02T18:10:01.769Z,2.32
2023-02-02T18:15:09.215Z,2.24
2023-02-02T18:20:15.352Z,2.11
2023-02-02T18:25:19.437Z,2.01
2023-02-02T18:30:22.167Z,1.96
2023-02-02T18:35:26.149Z,1.85
2023-02-02T18:40:28.991Z,1.79
2023-02-02T18:45:31.826Z,1.91
2023-02-02T18:50:35.081Z,1.72
2023-02-02T18:55:38.159Z,1.91
2023-02-02T19:00:42.384Z,1.85
2023-02-02T19:06:03.705Z,1.70
2023-02-02T19:11:14.858Z,1.72
2023-02-02T19:16:30.515Z,1.79
2023-02-02T19:21:34.907Z,1.96
2023-02-02T19:26:41.493Z,1.82
2023-02-02T19:31:45.532Z,1.52
2023-02-02T19:36:50.428Z,1.61
2023-02-02T19:41:57.330Z,1.56
2023-02-02T19:47:00.855Z,1.55
2023-02-02T19:52:04.890Z,1.52
2023-02-02T19:57:13.346Z,1.56
2023-02-02T20:02:32.416Z,1.58
2023-02-02T20:07:35.242Z,1.58
2023-02-02T20:12:38.166Z,1.50
2023-02-02T20:17:40.820Z,1.37
2023-02-02T20:22:44.648Z,1.40
2023-02-02T20:27:47.407Z,1.49
2023-02-02T20:32:55.533Z,1.72
2023-02-02T20:37:58.443Z,1.56
2023-02-02T20:43:01.287Z,1.69
2023-02-02T20:48:04.179Z,1.82
2023-02-02T20:53:07.224Z,1.69
2023-02-02T20:58:11.516Z,1.60
2023-02-02T21:03:14.238Z,1.59
2023-02-02T21:08:17.171Z,1.70
2023-02-02T21:13:20.081Z,1.90
2023-02-02T21:18:22.726Z,1.77
2023-02-02T21:23:25.401Z,1.79
2023-02-02T21:28:28.254Z,1.81
2023-02-02T21:33:30.806Z,1.87
2023-02-02T21:38:33.582Z,1.99
2023-02-02T21:43:37.654Z,2.08
2023-02-02T21:48:42.210Z,1.84
2023-02-02T21:53:45.156Z,1.96
2023-02-02T21:58:48.154Z,1.98
2023-02-02T22:03:51.306Z,1.93
2023-02-02T22:09:01.357Z,1.84
2023-02-02T22:14:25.381Z,1.90
2023-02-02T22:19:34.764Z,1.71
2023-02-02T22:24:37.721Z,1.83
2023-02-02T22:29:40.527Z,1.90
2023-02-02T22:34:43.597Z,1.95
2023-02-02T22:39:46.311Z,1.93
2023-02-02T22:44:49.067Z,1.94
2023-02-02T22:49:51.932Z,1.94
2023-02-02T22:54:54.499Z,1.78
2023-02-02T22:59:57.139Z,1.85
2023-02-02T23:04:59.870Z,1.95
2023-02-02T23:10:02.771Z,1.95
2023-02-02T23:15:07.247Z,1.92
2023-02-02T23:20:13.709Z,1.91
2023-02-02T23:25:18.825Z,1.95
2023-02-02T23:30:24.622Z,1.97
2023-02-02T23:35:27.729Z,1.89
2023-02-02T23:40:30.348Z,1.95
2023-02-02T23:45:33.218Z,1.83
2023-02-02T23:50:39.979Z,1.85
2023-02-02T23:55:44.144Z,1.80
